Blue Oak Ranch Reserve, California Weather observations

Data are for 10 minute period ending at time listed.
 Day   Time   Solar   Ave.   Ave.  Ave.  Vector  Max.   Baro.   Total    
  of    of     Rad.   Air    Rel.  Wind   Wind   Wind  Press.  Precip.   
Year   Day            Temp.  Hum.  Speed  Dir.   Gust                    
2017   (PST)  Kw/m2    F      %     mph   deg.    mph    mb.     in.     
-------------------------------------------------------------------------
  22   14:50   0.15   46.4    89    8.5   161    16.7   937.4    0.00 
  22   15:00   0.12   46.6    88    7.2   166    15.0   937.2    0.00 
  22   15:10   0.07   46.3    88    6.5   186    14.1   937.1    0.00 
  22   15:20   0.05   46.0    87    8.4   168    21.3   936.9    0.00 
  22   15:30   0.03   45.6    86    7.5   190    25.1   936.8    0.01 
  22   15:40   0.04   44.8    85    8.1   183    17.9   936.8    0.01 
  22   15:50   0.02   44.3    87    6.9   201    18.0   936.7    0.02 
  22   16:00   0.01   43.7    89    6.4   226    11.7   937.1    0.01 
  22   16:10   0.01   43.0    91    5.2   247     9.3   937.0    0.05 
  22   16:20   0.01   42.4    93    5.4   225    12.0   937.3    0.07 
  22   16:30   0.01   42.3    94    4.6   203    10.6   937.4    0.04 
  22   16:40   0.01   42.4    95    6.6   177    12.8   937.2    0.04 
  22   16:50   0.01   42.1    94    4.1   204    12.3   937.3    0.06 
  22   17:00   0.01   42.1    95    5.7   196    14.7   937.3    0.05 
  22   17:10   0.01   42.1    95    7.9   266    14.0   937.4    0.03 
  22   17:20   0.00   41.5    95   11.8   282    27.8   937.5    0.06 
  22   17:30   0.00   40.4    95   16.0   289    25.6   937.8    0.02 
  22   17:40   0.00   39.7    94   11.3   282    20.8   938.0    0.02 
  22   17:50   0.00   39.4    94    6.5   287    14.8   938.0    0.03 
  22   18:00   0.00   38.9    94    4.5   307     7.0   937.9    0.01 
  22   18:10   0.00   38.9    93    2.5   305     4.5   937.9    0.00 
  22   18:20   0.00   39.0    94    2.3    26     5.2   937.8    0.00 
  22   18:30   0.00   38.9    94    3.6    61     5.6   937.6    0.00 
  22   18:40   0.00   38.8    94    2.8    72     4.7   937.6    0.00 
  22   18:50   0.00   38.8    94    3.6    57     6.6   937.7    0.00 
  22   19:00   0.00   38.8    94    1.1    66     4.1   937.8    0.00 
  22   19:10   0.00   38.9    95    1.6   302     3.6   937.8    0.00 
  22   19:20   0.00   38.9    95    0.5   266     1.5   937.9    0.00 
  22   19:30   0.00   39.0    95    0.5   315     1.7   938.0    0.00 
  22   19:40   0.00   39.0    95    2.2    93     4.2   938.0    0.00 
  22   19:50   0.00   39.0    96    1.9    75     3.4   937.9    0.00 
  22   20:00   0.00   39.0    96    1.4    72     2.7   937.9    0.00 
  22   20:10   0.00   39.0    96    0.6    86     1.5   937.9    0.00 
  22   20:20   0.00   39.2    96    0.7    66     2.0   937.9    0.00 
  22   20:30   0.00   39.3    96    0.2   312     1.5   938.0    0.00 
  22   20:40   0.00   39.3    96    0.6    24     1.5   937.9    0.00 
  22   20:50   0.00   39.4    96    0.7   239     2.3   937.9    0.00 
  22   21:00   0.00   39.5    96    0.7   259     2.2   937.9    0.01 
  22   21:10   0.00   39.5    96    1.8   257     5.3   938.0    0.01 
  22   21:20   0.00   39.5    96    3.6   250     7.5   938.1    0.02 
  22   21:30   0.00   39.5    95    3.9   247     8.0   938.2    0.02 
  22   21:40   0.00   39.3    95    1.8   143     3.9   938.0    0.01 
  22   21:50   0.00   39.2    94    1.0   150     4.1   938.2    0.00 
  22   22:00   0.00   39.0    94    2.8   127     6.6   938.2    0.00 
  22   22:10   0.00   38.9    94    1.7   169     5.6   938.3    0.00 
  22   22:20   0.00   38.9    94    0.9     4     1.8   938.3    0.00 
  22   22:30   0.00   38.9    94    0.1    73     1.5   938.3    0.00 
  22   22:40   0.00   38.8    94    0.2   150     1.5   938.3    0.00 
  22   22:50   0.00   38.7    94    0.6   152     2.3   938.3    0.00 
  22   23:00   0.00   38.5    94    0.4    93     2.5   938.3    0.00 
  22   23:10   0.00   38.4    95    1.4   136     4.2   938.3    0.00 
  22   23:20   0.00   38.3    95    2.1   186     4.5   938.3    0.00 
  22   23:30   0.00   38.4    95    3.3   154     6.8   938.4    0.00 
  22   23:40   0.00   38.7    95    2.5   154     6.0   938.6    0.00 
  22   23:50   0.00   38.8    95    2.5   149     5.3   938.7    0.00 
  23    0:00   0.00   38.9    96    1.4   127     3.4   938.8    0.00 
  23    0:10   0.00   38.9    96    1.4   148     4.6   938.8    0.00 
  23    0:20   0.00   38.8    96    1.4   177     3.4   938.8    0.00 
  23    0:30   0.00   38.7    96    1.8   196     3.6   938.7    0.00 
  23    0:40   0.00   38.6    96    2.2   201     4.7   938.8    0.00 
  23    0:50   0.00   38.5    96    1.6   218     3.6   938.8    0.00 
  23    1:00   0.00   38.5    96    0.7    83     2.2   938.9    0.00 
  23    1:10   0.00   38.4    96    1.5   132     3.4   939.0    0.00 
  23    1:20   0.00   38.4    96    0.6    72     1.5   939.0    0.00 
  23    1:30   0.00   38.5    96    0.4    58     1.5   939.0    0.00 
  23    1:40   0.00   38.5    96    0.0   202     0.5   939.0    0.03 
  23    1:50   0.00   38.5    96    1.5   198     4.5   939.2    0.02 
  23    2:00   0.00   38.5    96    2.2   240     4.5   939.3    0.01 
  23    2:10   0.00   38.6    96    1.9   255     3.4   939.3    0.01 
  23    2:20   0.00   38.5    96    0.5   196     2.2   939.3    0.00 
  23    2:30   0.00   38.4    96    0.0     0     0.0   939.3    0.00 
  23    2:40   0.00   38.5    96    0.7    64     1.2   939.2    0.00 
  23    2:50   0.00   38.4    96    0.7    31     1.6   939.1    0.00 
  23    3:00   0.00   38.1    96    0.4   321     1.5   939.1    0.00 
  23    3:10   0.00   37.8    96    0.2   339     1.1   939.0    0.00 
  23    3:20   0.00   37.1    96    0.4    62     1.5   939.0    0.00 
  23    3:30   0.00   36.9    96    0.8    99     1.9   939.1    0.00 
  23    3:40   0.00   36.9    96    0.5   339     2.0   939.1    0.00 
  23    3:50   0.00   36.6    96    1.3   285     2.3   939.2    0.00 
  23    4:00   0.00   36.6    96    0.7   109     1.8   939.3    0.00 
  23    4:10   0.00   37.1    97    2.5   335     5.6   939.4    0.02 
  23    4:20   0.00   37.5    96    1.4   280     2.8   939.6    0.03 
  23    4:30   0.00   37.4    96    0.4    46     1.7   939.6    0.00 
  23    4:40   0.00   37.5    97    0.8    71     2.3   939.6    0.00 
  23    4:50   0.00   37.5    96    0.9    57     1.6   939.6    0.00 
  23    5:00   0.00   37.6    96    0.7    45     1.3   939.6    0.00 
  23    5:10   0.00   37.5    96    1.8   305     4.5   939.7    0.00 
  23    5:20   0.00   37.7    96    0.6    52     2.4   939.8    0.00 
  23    5:30   0.00   37.7    96    0.3    79     2.0   939.9    0.00 
  23    5:40   0.00   37.7    96    0.6    89     1.7   939.9    0.00 
  23    5:50   0.00   37.5    96    0.0     0     0.0   940.0    0.00 
  23    6:00   0.00   37.4    96    0.4   100     1.0   940.0    0.00 
  23    6:10   0.00   37.2    96    1.4   135     2.6   940.1    0.00 
  23    6:20   0.00   36.9    96    1.0    64     2.4   940.1    0.00 
  23    6:30   0.00   36.7    96    0.1    91     1.0   940.2    0.00 
  23    6:40   0.00   36.7    96    0.2    13     1.5   940.3    0.00 
  23    6:50   0.00   36.8    96    0.5   288     1.8   940.3    0.00 
  23    7:00   0.00   36.7    96    0.5   148     1.8   940.4    0.00 
  23    7:10   0.00   36.5    97    0.9   288     1.8   940.6    0.00 
  23    7:20   0.01   36.7    97    0.0   324     0.7   940.7    0.00 
  23    7:30   0.01   36.5    97    0.2    69     1.2   940.8    0.00 
  23    7:40   0.03   36.7    97    1.4    80     2.5   940.7    0.00 
  23    7:50   0.08   36.7    97    1.1   291     2.6   940.9    0.00 
  23    8:00   0.11   37.5    97    1.1   287     2.3   941.1    0.00 
  23    8:10   0.07   38.2    96    2.1   300     3.2   941.3    0.00 
  23    8:20   0.07   38.3    96    1.2   309     3.1   941.6    0.03 
  23    8:30   0.10   38.5    96    2.6   315     5.4   941.7    0.01 
  23    8:40   0.04   38.4    94    6.4   274    11.6   942.0    0.02 
  23    8:50   0.05   37.7    92    7.1   297    11.7   942.2    0.01 
  23    9:00   0.08   37.7    91    5.0   300    10.3   942.3    0.00 
  23    9:10   0.08   38.1    91    1.8   352     4.5   942.3    0.00 
  23    9:20   0.14   38.9    92    0.9    91     2.8   942.6    0.00 
  23    9:30   0.28   39.9    90    1.2   139     2.6   942.8    0.00 
  23    9:40   0.33   40.9    86    1.7   154     2.9   942.9    0.00 
  23    9:50   0.38   41.8    84    1.6   154     3.8   943.0    0.00 
  23   10:00   0.30   41.8    82    2.9   170     5.9   943.0    0.00 
  23   10:10   0.06   41.0    84    2.8   173     4.7   943.0    0.00 
  23   10:20   0.12   40.5    85    2.5   211     4.3   943.0    0.00 
  23   10:30   0.17   41.4    85    2.1   221     5.6   943.1    0.00 
  23   10:40   0.25   42.0    85    2.7   234     5.2   943.1    0.00 
  23   10:50   0.28   43.4    78    2.7   252     5.5   943.2    0.00 
  23   11:00   0.30   43.5    78    4.4   244     6.9   943.2    0.00 
  23   11:10   0.44   43.8    78    4.4   249     7.3   943.1    0.00 
  23   11:20   0.36   45.1    75    3.7   259     6.7   943.1    0.00 
  23   11:30   0.09   44.4    77    5.4   264     8.6   943.1    0.00 
  23   11:40   0.03   42.3    83    5.5   263     9.0   943.1    0.00 
  23   11:50   0.05   40.9    87    3.7   250     7.3   943.0    0.01 
  23   12:00   0.15   40.8    87    3.2   264     5.7   943.0    0.01 
  23   12:10   0.17   41.6    86    3.3   281     6.1   942.8    0.00 
  23   12:20   0.20   42.2    84    2.7   259     4.7   942.8    0.00 
  23   12:30   0.32   42.6    84    4.0   254     7.9   942.9    0.00 
  23   12:40   0.40   43.7    80    4.5   235     8.7   942.8    0.00 
  23   12:50   0.16   43.7    78    4.7   244     9.1   942.6    0.00 
  23   13:00   0.24   42.7    81    4.2   244     8.3   942.5    0.00 
  23   13:10   0.54   44.6    76    3.9   264     8.2   942.5    0.00 
  23   13:20   0.19   44.4    74    4.7   241     7.8   942.4    0.00 
  23   13:30   0.06   42.6    78    3.8   250     6.7   942.3    0.00 
  23   13:40   0.03   40.9    84    5.7   277    10.2   942.5    0.04 
  23   13:50   0.05   38.9    88    4.9   303     7.5   942.6    0.01 
  23   14:00   0.12   39.1    91    2.8   298     6.6   942.6    0.02 
  23   14:10   0.43   40.5    91    1.4   193     2.9   942.6    0.00 
  23   14:20   0.50   42.0    86    2.5   168     4.4   942.6    0.00 
  23   14:30   0.18   41.8    80    2.9   173     6.4   942.6    0.00 
  23   14:40   0.09   41.4    82    2.2   242     4.6   942.5    0.00 

Return to Blue Oak Ranch Reserve graphs page.


Western Regional Climate Center,wrcc@dri.edu